Archival Weather

Chicago O'Hare International

Chicago, Illinois (KORD)

Report from: Wednesday, March 27, 2024 7:51 PM CDT
Current time: Tuesday, May 21, 2024 11:20 AM CDT

Current weather – Weather history – Daily summaries
Weather forecast

Temperature3.9°C (39.0°F)
Wind chill-0.1°C (31.8°F)
Dew point-5.0°C (23.0°F)
Winds 10 kts (5.1 m/s, 11.5 mph) West (260°)
Visibility10 mi. (16.1 km)
Clouds Few clouds 4,600 ft. (1,402 m)
Few clouds 30,000 ft. (9,144 m)
Altimeter30.08 in.Hg (1019 mB)
Relative humidity52 %
Density altitude-1,486 ft. (-453 m)
Sea-level pressure101.9 kPa (1019 mB, 30.10 in.Hg)
Remarks Automated weather observing station with precipitation discriminator
Flight conditions Visual Meteorological Conditions
Raw dataKORD 280051Z 26010KT 10SM FEW046 FEW300 04/M05 A3008 RMK AO2 SLP194 T00391050
An error has occurred. This application may no longer respond until reloaded. Reload 🗙